sensor_id;sensor_type;location;lat;lon;timestamp;temperature;humidity
12568;DHT22;6349;50.904;6.136;2023-05-19T00:00:34;10.80;99.90
12568;DHT22;6349;50.904;6.136;2023-05-19T00:02:37;10.70;99.90
12568;DHT22;6349;50.904;6.136;2023-05-19T00:04:39;10.70;99.90
12568;DHT22;6349;50.904;6.136;2023-05-19T00:06:43;10.70;99.90
12568;DHT22;6349;50.904;6.136;2023-05-19T00:08:48;10.60;99.90
12568;DHT22;6349;50.904;6.136;2023-05-19T00:10:51;10.70;99.90
12568;DHT22;6349;50.904;6.136;2023-05-19T00:12:53;10.60;99.90
12568;DHT22;6349;50.904;6.136;2023-05-19T00:14:55;10.60;99.90
12568;DHT22;6349;50.904;6.136;2023-05-19T00:16:57;10.60;99.90
12568;DHT22;6349;50.904;6.136;2023-05-19T00:19:00;10.60;99.90
12568;DHT22;6349;50.904;6.136;2023-05-19T00:21:02;10.70;99.90
12568;DHT22;6349;50.904;6.136;2023-05-19T00:23:04;10.70;99.90
12568;DHT22;6349;50.904;6.136;2023-05-19T00:25:06;10.70;99.90
12568;DHT22;6349;50.904;6.136;2023-05-19T00:27:07;10.80;99.90
12568;DHT22;6349;50.904;6.136;2023-05-19T00:29:08;10.80;99.90
12568;DHT22;6349;50.904;6.136;2023-05-19T00:31:09;10.80;99.90
12568;DHT22;6349;50.904;6.136;2023-05-19T00:33:11;10.80;99.90
12568;DHT22;6349;50.904;6.136;2023-05-19T00:35:13;10.70;99.90
12568;DHT22;6349;50.904;6.136;2023-05-19T00:37:13;10.70;99.90
12568;DHT22;6349;50.904;6.136;2023-05-19T00:39:14;10.60;99.90
12568;DHT22;6349;50.904;6.136;2023-05-19T00:41:15;10.60;99.90
12568;DHT22;6349;50.904;6.136;2023-05-19T00:43:18;10.60;99.90
12568;DHT22;6349;50.904;6.136;2023-05-19T00:45:18;10.50;99.90
12568;DHT22;6349;50.904;6.136;2023-05-19T00:47:20;10.50;99.90
12568;DHT22;6349;50.904;6.136;2023-05-19T00:49:22;10.50;99.90
12568;DHT22;6349;50.904;6.136;2023-05-19T00:51:25;10.50;99.90
12568;DHT22;6349;50.904;6.136;2023-05-19T00:53:27;10.50;99.90
12568;DHT22;6349;50.904;6.136;2023-05-19T00:55:30;10.50;99.90
12568;DHT22;6349;50.904;6.136;2023-05-19T00:57:31;10.50;99.90
12568;DHT22;6349;50.904;6.136;2023-05-19T00:59:32;10.50;99.90
12568;DHT22;6349;50.904;6.136;2023-05-19T01:01:34;10.40;99.90
12568;DHT22;6349;50.904;6.136;2023-05-19T01:03:37;10.40;99.90
12568;DHT22;6349;50.904;6.136;2023-05-19T01:05:42;10.40;99.90
12568;DHT22;6349;50.904;6.136;2023-05-19T01:07:48;10.40;99.90
12568;DHT22;6349;50.904;6.136;2023-05-19T01:09:54;10.40;99.90
12568;DHT22;6349;50.904;6.136;2023-05-19T01:11:58;10.30;99.90
12568;DHT22;6349;50.904;6.136;2023-05-19T01:14:00;10.30;99.90
12568;DHT22;6349;50.904;6.136;2023-05-19T01:16:53;10.20;99.90
12568;DHT22;6349;50.904;6.136;2023-05-19T01:30:48;10.30;99.90
12568;DHT22;6349;50.904;6.136;2023-05-19T01:32:58;10.20;99.90
12568;DHT22;6349;50.904;6.136;2023-05-19T01:35:02;10.20;99.90
12568;DHT22;6349;50.904;6.136;2023-05-19T01:37:06;10.20;99.90
12568;DHT22;6349;50.904;6.136;2023-05-19T01:39:08;10.20;99.90
12568;DHT22;6349;50.904;6.136;2023-05-19T01:41:10;10.20;99.90
12568;DHT22;6349;50.904;6.136;2023-05-19T01:43:20;10.20;99.90
12568;DHT22;6349;50.904;6.136;2023-05-19T01:45:23;10.10;99.90
12568;DHT22;6349;50.904;6.136;2023-05-19T01:47:25;10.10;99.90
12568;DHT22;6349;50.904;6.136;2023-05-19T01:49:27;10.10;99.90
12568;DHT22;6349;50.904;6.136;2023-05-19T01:51:29;10.10;99.90
12568;DHT22;6349;50.904;6.136;2023-05-19T01:53:32;10.10;99.90
12568;DHT22;6349;50.904;6.136;2023-05-19T01:55:44;10.10;99.90
12568;DHT22;6349;50.904;6.136;2023-05-19T02:05:10;10.40;99.90
12568;DHT22;6349;50.904;6.136;2023-05-19T02:07:16;10.40;99.90
12568;DHT22;6349;50.904;6.136;2023-05-19T02:09:28;10.30;99.90
12568;DHT22;6349;50.904;6.136;2023-05-19T02:13:56;9.90;99.90
12568;DHT22;6349;50.904;6.136;2023-05-19T02:16:04;9.70;99.90
12568;DHT22;6349;50.904;6.136;2023-05-19T02:18:05;9.60;99.90
12568;DHT22;6349;50.904;6.136;2023-05-19T02:20:09;9.50;99.90
12568;DHT22;6349;50.904;6.136;2023-05-19T02:22:12;9.40;99.90
12568;DHT22;6349;50.904;6.136;2023-05-19T02:24:13;9.40;99.90
12568;DHT22;6349;50.904;6.136;2023-05-19T02:26:14;9.30;99.90
12568;DHT22;6349;50.904;6.136;2023-05-19T02:28:16;9.40;99.90
12568;DHT22;6349;50.904;6.136;2023-05-19T02:30:18;9.50;99.90
12568;DHT22;6349;50.904;6.136;2023-05-19T02:32:20;9.50;99.90
12568;DHT22;6349;50.904;6.136;2023-05-19T02:34:22;9.60;99.90
12568;DHT22;6349;50.904;6.136;2023-05-19T02:36:22;9.60;99.90
12568;DHT22;6349;50.904;6.136;2023-05-19T02:38:23;9.70;99.90
12568;DHT22;6349;50.904;6.136;2023-05-19T02:40:24;9.60;99.90
12568;DHT22;6349;50.904;6.136;2023-05-19T02:42:26;9.60;99.90
12568;DHT22;6349;50.904;6.136;2023-05-19T02:44:28;9.60;99.90
12568;DHT22;6349;50.904;6.136;2023-05-19T02:46:29;9.60;99.90
12568;DHT22;6349;50.904;6.136;2023-05-19T02:48:29;9.60;99.90
12568;DHT22;6349;50.904;6.136;2023-05-19T02:50:31;9.50;99.90
12568;DHT22;6349;50.904;6.136;2023-05-19T02:52:33;9.50;99.90
12568;DHT22;6349;50.904;6.136;2023-05-19T02:54:35;9.50;99.90
12568;DHT22;6349;50.904;6.136;2023-05-19T02:56:37;9.30;99.90
12568;DHT22;6349;50.904;6.136;2023-05-19T02:58:39;9.30;99.90
12568;DHT22;6349;50.904;6.136;2023-05-19T03:00:39;9.20;99.90
12568;DHT22;6349;50.904;6.136;2023-05-19T03:02:41;9.10;99.90
12568;DHT22;6349;50.904;6.136;2023-05-19T03:04:43;9.10;99.90
12568;DHT22;6349;50.904;6.136;2023-05-19T03:06:45;9.20;99.90
12568;DHT22;6349;50.904;6.136;2023-05-19T03:08:46;9.30;99.90
12568;DHT22;6349;50.904;6.136;2023-05-19T03:10:47;9.40;99.90
12568;DHT22;6349;50.904;6.136;2023-05-19T03:12:49;9.50;99.90
12568;DHT22;6349;50.904;6.136;2023-05-19T03:14:51;9.50;99.90
12568;DHT22;6349;50.904;6.136;2023-05-19T03:16:53;9.50;99.90
12568;DHT22;6349;50.904;6.136;2023-05-19T03:18:56;9.50;99.90
12568;DHT22;6349;50.904;6.136;2023-05-19T03:20:58;9.50;99.90
12568;DHT22;6349;50.904;6.136;2023-05-19T03:23:00;9.50;99.90
12568;DHT22;6349;50.904;6.136;2023-05-19T03:25:02;9.50;99.90
12568;DHT22;6349;50.904;6.136;2023-05-19T03:27:03;9.60;99.90
12568;DHT22;6349;50.904;6.136;2023-05-19T03:29:07;9.60;99.90
12568;DHT22;6349;50.904;6.136;2023-05-19T03:31:07;9.70;99.90
12568;DHT22;6349;50.904;6.136;2023-05-19T03:33:09;9.70;99.90
12568;DHT22;6349;50.904;6.136;2023-05-19T03:35:10;9.70;99.90
12568;DHT22;6349;50.904;6.136;2023-05-19T03:37:10;9.80;99.90
12568;DHT22;6349;50.904;6.136;2023-05-19T03:39:12;9.80;99.90
12568;DHT22;6349;50.904;6.136;2023-05-19T03:41:13;9.80;99.90
12568;DHT22;6349;50.904;6.136;2023-05-19T03:43:15;9.70;99.90
12568;DHT22;6349;50.904;6.136;2023-05-19T03:45:15;9.60;99.90
12568;DHT22;6349;50.904;6.136;2023-05-19T03:47:17;9.50;99.90
12568;DHT22;6349;50.904;6.136;2023-05-19T03:49:19;9.30;99.90
12568;DHT22;6349;50.904;6.136;2023-05-19T03:51:20;9.30;99.90
12568;DHT22;6349;50.904;6.136;2023-05-19T03:53:22;9.20;99.90
12568;DHT22;6349;50.904;6.136;2023-05-19T03:55:24;9.10;99.90
12568;DHT22;6349;50.904;6.136;2023-05-19T03:57:25;9.10;99.90
12568;DHT22;6349;50.904;6.136;2023-05-19T03:59:26;9.10;99.90
12568;DHT22;6349;50.904;6.136;2023-05-19T04:01:28;9.00;99.90
12568;DHT22;6349;50.904;6.136;2023-05-19T04:03:30;9.00;99.90
12568;DHT22;6349;50.904;6.136;2023-05-19T04:05:32;9.00;99.90
12568;DHT22;6349;50.904;6.136;2023-05-19T04:07:33;8.90;99.90
12568;DHT22;6349;50.904;6.136;2023-05-19T04:09:35;8.90;99.90
12568;DHT22;6349;50.904;6.136;2023-05-19T04:11:38;8.80;99.90
12568;DHT22;6349;50.904;6.136;2023-05-19T04:13:40;8.80;99.90
12568;DHT22;6349;50.904;6.136;2023-05-19T04:15:42;8.80;99.90
12568;DHT22;6349;50.904;6.136;2023-05-19T04:17:43;8.80;99.90
12568;DHT22;6349;50.904;6.136;2023-05-19T04:19:45;8.80;99.90
12568;DHT22;6349;50.904;6.136;2023-05-19T04:21:47;8.70;99.90
12568;DHT22;6349;50.904;6.136;2023-05-19T04:23:48;8.70;99.90
12568;DHT22;6349;50.904;6.136;2023-05-19T04:25:50;8.80;99.90
12568;DHT22;6349;50.904;6.136;2023-05-19T04:27:52;8.80;99.90
12568;DHT22;6349;50.904;6.136;2023-05-19T04:29:56;8.90;99.90
12568;DHT22;6349;50.904;6.136;2023-05-19T04:31:58;9.00;99.90
12568;DHT22;6349;50.904;6.136;2023-05-19T04:34:01;9.00;99.90
12568;DHT22;6349;50.904;6.136;2023-05-19T04:36:04;9.10;99.90
12568;DHT22;6349;50.904;6.136;2023-05-19T04:38:08;9.20;99.90
12568;DHT22;6349;50.904;6.136;2023-05-19T04:40:15;9.30;99.90
12568;DHT22;6349;50.904;6.136;2023-05-19T04:42:17;9.40;99.90
12568;DHT22;6349;50.904;6.136;2023-05-19T04:44:22;9.50;99.90
12568;DHT22;6349;50.904;6.136;2023-05-19T04:46:25;9.50;99.90
12568;DHT22;6349;50.904;6.136;2023-05-19T04:48:27;9.60;99.90
12568;DHT22;6349;50.904;6.136;2023-05-19T04:50:30;9.60;99.90
12568;DHT22;6349;50.904;6.136;2023-05-19T04:52:32;9.60;99.90
12568;DHT22;6349;50.904;6.136;2023-05-19T04:54:37;9.70;99.90
12568;DHT22;6349;50.904;6.136;2023-05-19T04:56:39;9.70;99.90
12568;DHT22;6349;50.904;6.136;2023-05-19T04:58:41;9.60;99.90
12568;DHT22;6349;50.904;6.136;2023-05-19T05:00:45;9.60;99.90
12568;DHT22;6349;50.904;6.136;2023-05-19T05:02:46;9.50;99.90
12568;DHT22;6349;50.904;6.136;2023-05-19T05:04:49;9.60;99.90
12568;DHT22;6349;50.904;6.136;2023-05-19T05:06:50;9.60;99.90
12568;DHT22;6349;50.904;6.136;2023-05-19T05:08:51;9.60;99.90
12568;DHT22;6349;50.904;6.136;2023-05-19T05:10:53;9.50;99.90
12568;DHT22;6349;50.904;6.136;2023-05-19T05:12:55;9.50;99.90
12568;DHT22;6349;50.904;6.136;2023-05-19T05:14:56;9.50;99.90
12568;DHT22;6349;50.904;6.136;2023-05-19T05:16:58;9.50;99.90
12568;DHT22;6349;50.904;6.136;2023-05-19T05:19:01;9.50;99.90
12568;DHT22;6349;50.904;6.136;2023-05-19T05:21:03;9.40;99.90
12568;DHT22;6349;50.904;6.136;2023-05-19T05:23:05;9.50;99.90
12568;DHT22;6349;50.904;6.136;2023-05-19T05:25:10;9.50;99.90
12568;DHT22;6349;50.904;6.136;2023-05-19T05:27:11;9.50;99.90
12568;DHT22;6349;50.904;6.136;2023-05-19T05:29:13;9.50;99.90
12568;DHT22;6349;50.904;6.136;2023-05-19T05:31:14;9.60;99.90
12568;DHT22;6349;50.904;6.136;2023-05-19T05:33:16;9.70;99.90
12568;DHT22;6349;50.904;6.136;2023-05-19T05:35:17;9.70;99.90
12568;DHT22;6349;50.904;6.136;2023-05-19T05:37:18;9.80;99.90
12568;DHT22;6349;50.904;6.136;2023-05-19T05:39:18;9.80;99.90
12568;DHT22;6349;50.904;6.136;2023-05-19T05:41:20;9.90;99.90
12568;DHT22;6349;50.904;6.136;2023-05-19T05:43:22;10.00;99.90
12568;DHT22;6349;50.904;6.136;2023-05-19T05:45:23;10.00;99.90
12568;DHT22;6349;50.904;6.136;2023-05-19T05:47:24;10.10;99.90
12568;DHT22;6349;50.904;6.136;2023-05-19T05:49:24;10.10;99.90
12568;DHT22;6349;50.904;6.136;2023-05-19T05:51:25;10.20;99.90
12568;DHT22;6349;50.904;6.136;2023-05-19T05:53:29;10.20;99.90
12568;DHT22;6349;50.904;6.136;2023-05-19T05:55:33;10.20;99.90
12568;DHT22;6349;50.904;6.136;2023-05-19T05:57:35;10.20;99.90
12568;DHT22;6349;50.904;6.136;2023-05-19T05:59:35;10.30;99.90
12568;DHT22;6349;50.904;6.136;2023-05-19T06:01:37;10.30;99.90
12568;DHT22;6349;50.904;6.136;2023-05-19T06:03:40;10.40;99.90
12568;DHT22;6349;50.904;6.136;2023-05-19T06:05:41;10.50;99.90
12568;DHT22;6349;50.904;6.136;2023-05-19T06:07:42;10.60;99.90
12568;DHT22;6349;50.904;6.136;2023-05-19T06:09:45;10.70;99.90
12568;DHT22;6349;50.904;6.136;2023-05-19T06:11:47;10.70;99.90
12568;DHT22;6349;50.904;6.136;2023-05-19T06:13:49;10.80;99.90
12568;DHT22;6349;50.904;6.136;2023-05-19T06:15:51;10.80;99.90
12568;DHT22;6349;50.904;6.136;2023-05-19T06:17:52;10.80;99.90
12568;DHT22;6349;50.904;6.136;2023-05-19T06:19:53;10.90;99.90
12568;DHT22;6349;50.904;6.136;2023-05-19T06:21:55;11.00;99.90
12568;DHT22;6349;50.904;6.136;2023-05-19T06:23:56;11.00;99.90
12568;DHT22;6349;50.904;6.136;2023-05-19T06:25:57;11.20;99.90
12568;DHT22;6349;50.904;6.136;2023-05-19T06:27:58;11.30;99.90
12568;DHT22;6349;50.904;6.136;2023-05-19T06:29:59;11.40;99.90
12568;DHT22;6349;50.904;6.136;2023-05-19T06:32:01;11.50;99.90
12568;DHT22;6349;50.904;6.136;2023-05-19T06:34:03;11.70;99.90
12568;DHT22;6349;50.904;6.136;2023-05-19T06:36:04;11.70;99.90
12568;DHT22;6349;50.904;6.136;2023-05-19T06:38:04;11.70;99.90
12568;DHT22;6349;50.904;6.136;2023-05-19T06:40:07;11.80;99.90
12568;DHT22;6349;50.904;6.136;2023-05-19T06:42:09;11.90;99.90
12568;DHT22;6349;50.904;6.136;2023-05-19T06:44:11;11.90;99.90
12568;DHT22;6349;50.904;6.136;2023-05-19T06:46:11;12.00;99.90
12568;DHT22;6349;50.904;6.136;2023-05-19T06:48:13;12.00;99.90
12568;DHT22;6349;50.904;6.136;2023-05-19T06:50:15;12.10;99.90
12568;DHT22;6349;50.904;6.136;2023-05-19T06:52:17;12.10;99.90
12568;DHT22;6349;50.904;6.136;2023-05-19T06:54:19;12.20;99.90
12568;DHT22;6349;50.904;6.136;2023-05-19T06:56:20;12.30;99.90
12568;DHT22;6349;50.904;6.136;2023-05-19T06:58:23;12.30;99.90
12568;DHT22;6349;50.904;6.136;2023-05-19T07:00:25;12.40;99.90
12568;DHT22;6349;50.904;6.136;2023-05-19T07:02:26;12.50;99.90
12568;DHT22;6349;50.904;6.136;2023-05-19T07:04:27;12.60;99.90
12568;DHT22;6349;50.904;6.136;2023-05-19T07:06:29;12.60;99.90
12568;DHT22;6349;50.904;6.136;2023-05-19T07:08:30;12.70;99.90
12568;DHT22;6349;50.904;6.136;2023-05-19T07:10:33;12.70;99.90
12568;DHT22;6349;50.904;6.136;2023-05-19T07:12:35;12.80;99.90
12568;DHT22;6349;50.904;6.136;2023-05-19T07:14:37;12.90;99.90
12568;DHT22;6349;50.904;6.136;2023-05-19T07:16:39;12.90;99.90
12568;DHT22;6349;50.904;6.136;2023-05-19T07:18:41;13.00;99.90
12568;DHT22;6349;50.904;6.136;2023-05-19T07:20:43;13.00;99.90
12568;DHT22;6349;50.904;6.136;2023-05-19T07:22:44;13.10;99.90
12568;DHT22;6349;50.904;6.136;2023-05-19T07:24:46;13.10;99.90
12568;DHT22;6349;50.904;6.136;2023-05-19T07:26:48;13.10;99.90
12568;DHT22;6349;50.904;6.136;2023-05-19T07:28:50;13.10;99.90
12568;DHT22;6349;50.904;6.136;2023-05-19T07:30:52;13.10;99.90
12568;DHT22;6349;50.904;6.136;2023-05-19T07:32:54;13.10;99.90
12568;DHT22;6349;50.904;6.136;2023-05-19T07:34:56;13.10;99.90
12568;DHT22;6349;50.904;6.136;2023-05-19T07:36:58;13.20;99.90
12568;DHT22;6349;50.904;6.136;2023-05-19T07:38:59;13.20;99.90
12568;DHT22;6349;50.904;6.136;2023-05-19T07:41:02;13.20;99.90
12568;DHT22;6349;50.904;6.136;2023-05-19T07:43:04;13.30;99.90
12568;DHT22;6349;50.904;6.136;2023-05-19T07:45:06;13.40;99.90
12568;DHT22;6349;50.904;6.136;2023-05-19T07:47:07;13.40;99.90
12568;DHT22;6349;50.904;6.136;2023-05-19T07:49:09;13.50;99.90
12568;DHT22;6349;50.904;6.136;2023-05-19T07:51:10;13.50;99.90
12568;DHT22;6349;50.904;6.136;2023-05-19T07:53:13;13.60;99.90
12568;DHT22;6349;50.904;6.136;2023-05-19T07:55:15;13.60;99.90
12568;DHT22;6349;50.904;6.136;2023-05-19T07:57:17;13.70;99.90
12568;DHT22;6349;50.904;6.136;2023-05-19T07:59:19;13.80;99.90
12568;DHT22;6349;50.904;6.136;2023-05-19T08:01:21;13.80;99.90
12568;DHT22;6349;50.904;6.136;2023-05-19T08:03:23;13.80;99.90
12568;DHT22;6349;50.904;6.136;2023-05-19T08:05:23;13.90;99.90
12568;DHT22;6349;50.904;6.136;2023-05-19T08:07:25;13.90;99.90
12568;DHT22;6349;50.904;6.136;2023-05-19T08:09:27;14.00;99.90
12568;DHT22;6349;50.904;6.136;2023-05-19T08:11:29;13.90;99.90
12568;DHT22;6349;50.904;6.136;2023-05-19T08:13:31;14.00;99.90
12568;DHT22;6349;50.904;6.136;2023-05-19T08:15:33;14.00;99.90
12568;DHT22;6349;50.904;6.136;2023-05-19T08:17:35;14.10;99.90
12568;DHT22;6349;50.904;6.136;2023-05-19T08:19:36;14.20;99.90
12568;DHT22;6349;50.904;6.136;2023-05-19T08:21:38;14.20;99.90
12568;DHT22;6349;50.904;6.136;2023-05-19T08:23:39;14.30;99.90
12568;DHT22;6349;50.904;6.136;2023-05-19T08:25:41;14.20;99.90
12568;DHT22;6349;50.904;6.136;2023-05-19T08:27:42;14.30;99.90
12568;DHT22;6349;50.904;6.136;2023-05-19T08:29:46;14.40;99.90
12568;DHT22;6349;50.904;6.136;2023-05-19T08:31:49;14.50;99.90
12568;DHT22;6349;50.904;6.136;2023-05-19T08:33:51;14.60;99.90
12568;DHT22;6349;50.904;6.136;2023-05-19T08:35:54;14.60;99.90
12568;DHT22;6349;50.904;6.136;2023-05-19T08:37:58;14.70;99.90
12568;DHT22;6349;50.904;6.136;2023-05-19T08:39:58;14.60;99.90
12568;DHT22;6349;50.904;6.136;2023-05-19T08:42:00;14.60;99.90
12568;DHT22;6349;50.904;6.136;2023-05-19T08:44:02;14.70;99.90
12568;DHT22;6349;50.904;6.136;2023-05-19T08:46:03;14.80;99.90
12568;DHT22;6349;50.904;6.136;2023-05-19T08:48:06;14.80;99.90
12568;DHT22;6349;50.904;6.136;2023-05-19T08:50:09;14.80;99.90
12568;DHT22;6349;50.904;6.136;2023-05-19T08:52:38;14.90;99.90
12568;DHT22;6349;50.904;6.136;2023-05-19T08:55:06;14.90;99.90
12568;DHT22;6349;50.904;6.136;2023-05-19T08:57:10;14.90;99.90
12568;DHT22;6349;50.904;6.136;2023-05-19T08:59:13;14.80;99.90
12568;DHT22;6349;50.904;6.136;2023-05-19T09:01:15;14.80;99.90
12568;DHT22;6349;50.904;6.136;2023-05-19T09:03:19;14.80;99.90
12568;DHT22;6349;50.904;6.136;2023-05-19T09:05:20;14.80;99.90
12568;DHT22;6349;50.904;6.136;2023-05-19T09:07:22;14.80;99.90
12568;DHT22;6349;50.904;6.136;2023-05-19T09:09:24;15.00;99.90
12568;DHT22;6349;50.904;6.136;2023-05-19T09:11:26;15.10;99.90
12568;DHT22;6349;50.904;6.136;2023-05-19T09:13:30;15.20;99.90
12568;DHT22;6349;50.904;6.136;2023-05-19T09:15:31;15.20;99.90
12568;DHT22;6349;50.904;6.136;2023-05-19T09:17:34;15.20;99.90
12568;DHT22;6349;50.904;6.136;2023-05-19T09:19:41;15.20;99.90
12568;DHT22;6349;50.904;6.136;2023-05-19T09:21:43;15.30;99.90
12568;DHT22;6349;50.904;6.136;2023-05-19T09:23:46;15.30;99.90
12568;DHT22;6349;50.904;6.136;2023-05-19T09:25:52;15.30;99.90
12568;DHT22;6349;50.904;6.136;2023-05-19T09:27:54;15.30;99.90
12568;DHT22;6349;50.904;6.136;2023-05-19T09:30:05;15.40;99.90
12568;DHT22;6349;50.904;6.136;2023-05-19T09:32:07;15.40;99.90
12568;DHT22;6349;50.904;6.136;2023-05-19T09:34:12;15.40;99.90
12568;DHT22;6349;50.904;6.136;2023-05-19T09:36:14;15.50;99.90
12568;DHT22;6349;50.904;6.136;2023-05-19T09:38:19;15.50;99.90
12568;DHT22;6349;50.904;6.136;2023-05-19T09:40:27;15.60;99.90
12568;DHT22;6349;50.904;6.136;2023-05-19T09:42:29;15.80;99.90
12568;DHT22;6349;50.904;6.136;2023-05-19T09:44:30;15.80;99.90
12568;DHT22;6349;50.904;6.136;2023-05-19T09:46:35;15.90;99.90
12568;DHT22;6349;50.904;6.136;2023-05-19T09:48:38;15.90;99.90
12568;DHT22;6349;50.904;6.136;2023-05-19T09:50:41;16.00;99.90
12568;DHT22;6349;50.904;6.136;2023-05-19T09:52:44;16.00;99.90
12568;DHT22;6349;50.904;6.136;2023-05-19T09:54:47;16.00;99.90
12568;DHT22;6349;50.904;6.136;2023-05-19T09:57:01;16.10;99.90
12568;DHT22;6349;50.904;6.136;2023-05-19T09:59:05;16.10;99.90
12568;DHT22;6349;50.904;6.136;2023-05-19T10:01:08;16.20;99.90
12568;DHT22;6349;50.904;6.136;2023-05-19T10:03:10;16.20;99.90
12568;DHT22;6349;50.904;6.136;2023-05-19T10:05:16;16.20;99.90
12568;DHT22;6349;50.904;6.136;2023-05-19T10:07:19;16.30;99.90
12568;DHT22;6349;50.904;6.136;2023-05-19T10:09:24;16.30;99.90
12568;DHT22;6349;50.904;6.136;2023-05-19T10:11:26;16.40;99.90
12568;DHT22;6349;50.904;6.136;2023-05-19T10:13:28;16.40;99.90
12568;DHT22;6349;50.904;6.136;2023-05-19T10:15:30;16.50;99.90
12568;DHT22;6349;50.904;6.136;2023-05-19T10:17:31;16.60;99.90
12568;DHT22;6349;50.904;6.136;2023-05-19T10:19:35;16.60;99.90
12568;DHT22;6349;50.904;6.136;2023-05-19T10:21:37;16.60;99.90
12568;DHT22;6349;50.904;6.136;2023-05-19T10:23:38;16.70;99.90
12568;DHT22;6349;50.904;6.136;2023-05-19T10:25:41;16.60;99.90
12568;DHT22;6349;50.904;6.136;2023-05-19T10:27:50;16.70;99.90
12568;DHT22;6349;50.904;6.136;2023-05-19T10:29:56;16.80;99.90
12568;DHT22;6349;50.904;6.136;2023-05-19T10:32:03;16.80;99.90
12568;DHT22;6349;50.904;6.136;2023-05-19T10:36:24;16.90;99.90
12568;DHT22;6349;50.904;6.136;2023-05-19T10:43:38;17.20;99.90
12568;DHT22;6349;50.904;6.136;2023-05-19T10:45:56;17.20;99.90
12568;DHT22;6349;50.904;6.136;2023-05-19T10:47:56;17.20;99.90
12568;DHT22;6349;50.904;6.136;2023-05-19T10:49:59;17.30;99.90
12568;DHT22;6349;50.904;6.136;2023-05-19T10:52:02;17.30;99.90
12568;DHT22;6349;50.904;6.136;2023-05-19T10:54:07;17.30;99.90
12568;DHT22;6349;50.904;6.136;2023-05-19T10:56:27;17.30;99.90
12568;DHT22;6349;50.904;6.136;2023-05-19T11:00:44;17.30;99.90
12568;DHT22;6349;50.904;6.136;2023-05-19T11:02:45;17.30;99.90
12568;DHT22;6349;50.904;6.136;2023-05-19T11:04:48;17.40;99.90
12568;DHT22;6349;50.904;6.136;2023-05-19T11:06:52;17.50;99.90
12568;DHT22;6349;50.904;6.136;2023-05-19T11:09:14;17.70;99.90
12568;DHT22;6349;50.904;6.136;2023-05-19T11:11:16;17.80;99.90
12568;DHT22;6349;50.904;6.136;2023-05-19T11:13:26;17.80;99.90
12568;DHT22;6349;50.904;6.136;2023-05-19T11:15:28;17.90;99.90
12568;DHT22;6349;50.904;6.136;2023-05-19T11:17:31;18.00;99.90
12568;DHT22;6349;50.904;6.136;2023-05-19T11:19:34;18.00;99.90
12568;DHT22;6349;50.904;6.136;2023-05-19T11:21:49;18.10;99.90
12568;DHT22;6349;50.904;6.136;2023-05-19T11:23:51;18.20;99.90
12568;DHT22;6349;50.904;6.136;2023-05-19T11:25:52;18.20;99.90
12568;DHT22;6349;50.904;6.136;2023-05-19T11:27:56;18.30;99.90
12568;DHT22;6349;50.904;6.136;2023-05-19T11:30:10;18.40;99.90
12568;DHT22;6349;50.904;6.136;2023-05-19T11:32:15;18.50;99.90
12568;DHT22;6349;50.904;6.136;2023-05-19T11:34:17;18.50;99.90
12568;DHT22;6349;50.904;6.136;2023-05-19T11:36:19;18.60;99.90
12568;DHT22;6349;50.904;6.136;2023-05-19T11:38:21;18.70;99.90
12568;DHT22;6349;50.904;6.136;2023-05-19T11:40:24;18.80;99.90
12568;DHT22;6349;50.904;6.136;2023-05-19T11:42:26;18.80;99.90
12568;DHT22;6349;50.904;6.136;2023-05-19T11:44:27;18.70;99.90
12568;DHT22;6349;50.904;6.136;2023-05-19T11:46:27;18.50;99.90
12568;DHT22;6349;50.904;6.136;2023-05-19T11:48:28;18.40;99.90
12568;DHT22;6349;50.904;6.136;2023-05-19T11:50:30;18.50;99.90
12568;DHT22;6349;50.904;6.136;2023-05-19T11:52:32;18.60;99.90
12568;DHT22;6349;50.904;6.136;2023-05-19T11:54:33;18.60;99.90
12568;DHT22;6349;50.904;6.136;2023-05-19T11:56:41;18.50;99.90
12568;DHT22;6349;50.904;6.136;2023-05-19T11:58:43;18.30;99.90
12568;DHT22;6349;50.904;6.136;2023-05-19T12:00:44;18.20;99.90
12568;DHT22;6349;50.904;6.136;2023-05-19T12:02:49;18.20;99.90
12568;DHT22;6349;50.904;6.136;2023-05-19T12:04:50;18.40;99.90
12568;DHT22;6349;50.904;6.136;2023-05-19T12:06:51;18.60;99.90
12568;DHT22;6349;50.904;6.136;2023-05-19T12:08:54;18.70;99.90
12568;DHT22;6349;50.904;6.136;2023-05-19T12:10:55;18.90;99.90
12568;DHT22;6349;50.904;6.136;2023-05-19T12:12:58;19.00;99.90
12568;DHT22;6349;50.904;6.136;2023-05-19T12:15:01;19.20;99.90
12568;DHT22;6349;50.904;6.136;2023-05-19T12:17:11;19.30;99.90
12568;DHT22;6349;50.904;6.136;2023-05-19T12:19:14;19.40;99.90
12568;DHT22;6349;50.904;6.136;2023-05-19T12:21:16;19.40;99.90
12568;DHT22;6349;50.904;6.136;2023-05-19T12:23:18;19.60;99.90
12568;DHT22;6349;50.904;6.136;2023-05-19T12:25:20;19.70;99.90
12568;DHT22;6349;50.904;6.136;2023-05-19T12:27:25;19.80;99.90
12568;DHT22;6349;50.904;6.136;2023-05-19T12:29:27;19.60;99.90
12568;DHT22;6349;50.904;6.136;2023-05-19T12:31:30;19.50;99.90
12568;DHT22;6349;50.904;6.136;2023-05-19T12:33:32;19.50;99.90
12568;DHT22;6349;50.904;6.136;2023-05-19T12:35:36;19.50;99.90
12568;DHT22;6349;50.904;6.136;2023-05-19T12:37:41;19.80;99.90
12568;DHT22;6349;50.904;6.136;2023-05-19T12:39:43;19.80;99.90
12568;DHT22;6349;50.904;6.136;2023-05-19T12:41:45;19.70;99.90
12568;DHT22;6349;50.904;6.136;2023-05-19T12:43:47;19.70;99.90
12568;DHT22;6349;50.904;6.136;2023-05-19T12:45:48;19.40;99.90
12568;DHT22;6349;50.904;6.136;2023-05-19T12:47:50;19.30;99.90
12568;DHT22;6349;50.904;6.136;2023-05-19T12:50:09;19.50;99.90
12568;DHT22;6349;50.904;6.136;2023-05-19T12:52:12;19.40;99.90
12568;DHT22;6349;50.904;6.136;2023-05-19T12:54:18;19.50;99.90
12568;DHT22;6349;50.904;6.136;2023-05-19T12:56:20;19.70;99.90
12568;DHT22;6349;50.904;6.136;2023-05-19T12:58:22;19.70;99.90
12568;DHT22;6349;50.904;6.136;2023-05-19T13:00:25;20.00;99.90
12568;DHT22;6349;50.904;6.136;2023-05-19T13:02:29;20.00;99.90
12568;DHT22;6349;50.904;6.136;2023-05-19T13:04:31;20.00;99.90
12568;DHT22;6349;50.904;6.136;2023-05-19T13:06:33;20.10;99.90
12568;DHT22;6349;50.904;6.136;2023-05-19T13:08:36;20.10;99.90
12568;DHT22;6349;50.904;6.136;2023-05-19T13:10:40;20.10;99.90
12568;DHT22;6349;50.904;6.136;2023-05-19T13:12:42;20.30;99.90
12568;DHT22;6349;50.904;6.136;2023-05-19T13:14:44;20.60;99.90
12568;DHT22;6349;50.904;6.136;2023-05-19T13:16:45;20.60;99.90
12568;DHT22;6349;50.904;6.136;2023-05-19T13:18:47;20.60;99.90
12568;DHT22;6349;50.904;6.136;2023-05-19T13:20:49;20.60;99.90
12568;DHT22;6349;50.904;6.136;2023-05-19T13:22:53;20.60;99.90
12568;DHT22;6349;50.904;6.136;2023-05-19T13:24:55;20.50;99.90
12568;DHT22;6349;50.904;6.136;2023-05-19T13:26:59;20.50;99.90
12568;DHT22;6349;50.904;6.136;2023-05-19T13:29:01;20.50;99.90
12568;DHT22;6349;50.904;6.136;2023-05-19T13:31:03;20.50;99.90
12568;DHT22;6349;50.904;6.136;2023-05-19T13:33:05;20.60;99.90
12568;DHT22;6349;50.904;6.136;2023-05-19T13:35:06;20.60;99.90
12568;DHT22;6349;50.904;6.136;2023-05-19T13:37:08;20.60;99.90
12568;DHT22;6349;50.904;6.136;2023-05-19T13:39:08;20.60;99.90
12568;DHT22;6349;50.904;6.136;2023-05-19T13:41:10;20.60;99.90
12568;DHT22;6349;50.904;6.136;2023-05-19T13:43:12;20.80;99.90